Time;durP1;ratioP1;P1;durP2;ratioP2;P2;SDS_P1;SDS_P2;PMS_P1;PMS_P2;Temp;Humidity;BMP_temperature;BMP_pressure;BME280_temperature;BME280_humidity;BME280_pressure;Samples;Min_cycle;Max_cycle;Signal;HPM_P1;HPM_P2
2023/05/04 00:00:19;;;;;;;4.10;3.60;;;17.50;68.20;;;;;;5038637;28;20424;-75
2023/05/04 00:02:44;;;;;;;6.03;3.47;;;17.50;68.20;;;;;;5038071;28;20206;-75
2023/05/04 00:05:11;;;;;;;4.80;3.70;;;17.50;68.20;;;;;;5072520;28;20412;-75
2023/05/04 00:07:37;;;;;;;5.10;3.60;;;17.50;68.30;;;;;;5039827;28;20431;-75
2023/05/04 00:10:04;;;;;;;4.83;4.03;;;17.40;68.20;;;;;;5058250;28;20408;-75
2023/05/04 00:12:30;;;;;;;8.00;3.70;;;17.40;68.30;;;;;;5058185;28;20452;-75
2023/05/04 00:14:56;;;;;;;5.93;3.60;;;17.40;68.30;;;;;;5041537;28;20412;-75
2023/05/04 00:17:22;;;;;;;3.83;3.30;;;17.40;68.40;;;;;;5041321;28;20431;-75
2023/05/04 00:19:53;;;;;;;6.50;4.23;;;17.40;68.50;;;;;;5057243;28;20421;-75
2023/05/04 00:22:28;;;;;;;6.37;3.17;;;17.40;68.50;;;;;;5057645;28;20440;-75
2023/05/04 00:24:57;;;;;;;3.57;3.20;;;17.40;68.50;;;;;;5049950;28;20413;-75
2023/05/04 00:27:25;;;;;;;5.43;4.20;;;17.40;68.60;;;;;;5075233;28;20573;-75
2023/05/04 00:29:56;;;;;;;4.70;3.00;;;17.30;68.70;;;;;;5058388;28;20735;-75
2023/05/04 00:32:26;;;;;;;5.77;3.50;;;17.30;68.70;;;;;;5042264;28;20427;-75
2023/05/04 00:34:53;;;;;;;3.43;3.13;;;17.30;68.70;;;;;;5058012;28;20412;-75
2023/05/04 00:37:20;;;;;;;5.13;3.40;;;17.30;68.80;;;;;;5057715;28;20405;-75
2023/05/04 00:39:46;;;;;;;4.60;3.00;;;17.30;68.80;;;;;;5040811;28;20506;-75
2023/05/04 00:42:12;;;;;;;4.40;3.20;;;17.20;68.70;;;;;;5041077;28;20455;-75
2023/05/04 00:44:40;;;;;;;4.17;3.60;;;17.20;68.80;;;;;;5040973;28;20786;-75
2023/05/04 00:47:10;;;;;;;4.77;3.50;;;17.20;68.90;;;;;;5040763;28;20527;-75
2023/05/04 00:49:36;;;;;;;4.50;3.30;;;17.20;69.00;;;;;;5041271;28;20748;-75
2023/05/04 00:52:04;;;;;;;4.83;3.87;;;17.20;69.00;;;;;;5040653;28;20464;-75
2023/05/04 00:54:33;;;;;;;3.77;3.37;;;17.10;69.00;;;;;;5024379;28;20409;-75
2023/05/04 00:57:04;;;;;;;4.80;3.60;;;17.10;69.10;;;;;;5057301;28;20476;-75
2023/05/04 00:59:30;;;;;;;5.63;3.80;;;17.10;69.10;;;;;;5024582;28;20448;-75
2023/05/04 01:01:58;;;;;;;4.83;3.67;;;17.10;69.10;;;;;;5040705;28;20781;-75
2023/05/04 01:04:25;;;;;;;4.00;2.80;;;17.10;69.20;;;;;;5024554;28;20412;-75
2023/05/04 01:07:09;;;;;;;4.70;3.07;;;17.10;69.20;;;;;;5057239;28;20442;-75
2023/05/04 01:10:00;;;;;;;3.90;3.27;;;17.10;69.30;;;;;;5057218;28;20762;-75
2023/05/04 01:12:42;;;;;;;3.53;3.23;;;17.00;69.20;;;;;;5040765;28;20885;-75
2023/05/04 01:15:11;;;;;;;3.37;3.03;;;17.00;69.30;;;;;;5040267;28;20431;-75
2023/05/04 01:17:40;;;;;;;4.07;3.47;;;16.90;69.30;;;;;;5056934;28;20481;-74
2023/05/04 01:20:08;;;;;;;4.80;3.30;;;16.90;69.40;;;;;;5057334;28;20410;-75
2023/05/04 01:22:40;;;;;;;4.43;3.27;;;17.00;69.60;;;;;;5056795;28;20947;-75
2023/05/04 01:25:07;;;;;;;6.97;3.60;;;16.90;69.60;;;;;;5040419;28;20945;-75
2023/05/04 01:27:44;;;;;;;10.03;3.20;;;16.90;69.70;;;;;;5039910;28;20426;-75
2023/05/04 01:30:19;;;;;;;3.47;2.90;;;16.90;69.70;;;;;;5040298;28;20407;-75
2023/05/04 01:32:48;;;;;;;5.10;3.43;;;16.90;69.80;;;;;;5056613;28;20484;-75
2023/05/04 01:35:21;;;;;;;5.70;3.47;;;16.80;69.80;;;;;;5057353;28;20455;-75
2023/05/04 01:37:49;;;;;;;3.17;2.87;;;16.80;69.80;;;;;;5040018;28;20828;-75
2023/05/04 01:40:17;;;;;;;5.63;3.27;;;16.80;69.90;;;;;;5040490;28;20391;-75
2023/05/04 01:42:46;;;;;;;3.83;2.90;;;16.80;70.00;;;;;;5056347;28;20472;-75
2023/05/04 01:45:12;;;;;;;5.13;3.57;;;16.80;70.10;;;;;;5039902;28;20430;-75
2023/05/04 01:47:40;;;;;;;6.77;3.53;;;16.70;70.00;;;;;;5057035;28;20503;-75
2023/05/04 01:50:09;;;;;;;3.40;3.00;;;16.70;70.10;;;;;;5074138;28;20402;-75
2023/05/04 01:52:37;;;;;;;4.03;3.07;;;16.70;70.10;;;;;;5056562;28;20797;-75
2023/05/04 01:55:06;;;;;;;4.93;3.27;;;16.70;70.30;;;;;;5056071;28;20383;-75
2023/05/04 01:57:37;;;;;;;6.27;3.43;;;16.70;70.30;;;;;;5074250;28;20893;-75
2023/05/04 02:00:05;;;;;;;2.97;2.70;;;16.70;70.50;;;;;;5039755;28;20427;-75
2023/05/04 02:02:44;;;;;;;4.80;3.40;;;16.60;70.30;;;;;;5056039;28;20431;-75
2023/05/04 02:05:14;;;;;;;4.03;3.33;;;16.60;70.40;;;;;;5039429;28;20926;-75
2023/05/04 02:07:40;;;;;;;4.83;3.33;;;16.60;70.50;;;;;;5056008;28;20426;-75
2023/05/04 02:10:07;;;;;;;4.80;3.10;;;16.60;70.60;;;;;;5056051;28;20403;-75
2023/05/04 02:12:36;;;;;;;5.33;3.40;;;16.60;70.70;;;;;;5022934;28;20453;-75
2023/05/04 02:15:09;;;;;;;4.03;2.87;;;16.50;70.60;;;;;;5055709;28;20842;-75
2023/05/04 02:17:38;;;;;;;4.57;3.57;;;16.50;70.70;;;;;;5039124;28;20504;-75
2023/05/04 02:20:06;;;;;;;5.53;3.87;;;16.50;70.70;;;;;;5055723;28;20821;-75
2023/05/04 02:22:36;;;;;;;5.93;3.60;;;16.50;70.70;;;;;;5039184;28;20564;-75
2023/05/04 02:25:06;;;;;;;4.73;3.30;;;16.50;70.90;;;;;;5055734;28;20749;-75
2023/05/04 02:27:32;;;;;;;3.77;3.03;;;16.50;70.90;;;;;;5073706;28;20438;-76
2023/05/04 02:29:59;;;;;;;5.30;3.53;;;16.40;70.80;;;;;;5038393;28;21151;-76
2023/05/04 02:32:35;;;;;;;4.30;3.40;;;16.40;70.90;;;;;;5055881;28;20530;-75
2023/05/04 02:35:03;;;;;;;4.03;3.30;;;16.40;70.90;;;;;;5023231;28;20423;-75
2023/05/04 02:37:31;;;;;;;4.73;3.30;;;16.40;71.00;;;;;;5039497;28;20910;-75
2023/05/04 02:39:57;;;;;;;3.67;2.73;;;16.40;71.10;;;;;;5046656;28;20427;-75
2023/05/04 02:42:25;;;;;;;4.47;3.47;;;16.30;71.00;;;;;;5035491;28;20448;-74
2023/05/04 02:44:52;;;;;;;4.27;3.43;;;16.30;71.10;;;;;;5021978;28;20209;-74
2023/05/04 02:47:22;;;;;;;4.63;3.00;;;16.30;71.10;;;;;;5064589;28;20486;-74
2023/05/04 02:49:48;;;;;;;3.30;2.90;;;16.30;71.10;;;;;;5093345;28;20443;-74
2023/05/04 02:52:19;;;;;;;4.27;3.50;;;16.30;71.20;;;;;;5066590;28;20467;-74
2023/05/04 02:54:47;;;;;;;3.70;3.03;;;16.30;71.30;;;;;;5039044;28;20893;-74
2023/05/04 02:57:15;;;;;;;4.57;3.07;;;16.30;71.40;;;;;;5046064;28;20815;-79
2023/05/04 02:59:41;;;;;;;4.63;3.40;;;16.30;71.40;;;;;;5092472;28;20417;-76
2023/05/04 03:02:12;;;;;;;3.50;3.20;;;16.20;71.30;;;;;;5058502;28;20447;-76
2023/05/04 03:04:40;;;;;;;3.50;3.20;;;16.20;71.40;;;;;;5058772;28;20393;-76
2023/05/04 03:07:08;;;;;;;5.33;3.70;;;16.20;71.50;;;;;;5056405;28;20443;-74
2023/05/04 03:09:36;;;;;;;4.57;3.80;;;16.20;71.50;;;;;;5038189;28;20423;-74
2023/05/04 03:12:05;;;;;;;4.03;3.50;;;16.20;71.50;;;;;;5054502;28;20433;-74
2023/05/04 03:14:31;;;;;;;4.83;3.00;;;16.10;71.50;;;;;;5054469;28;20524;-74
2023/05/04 03:16:57;;;;;;;3.97;3.47;;;16.10;71.50;;;;;;5037822;28;20464;-74
2023/05/04 03:19:23;;;;;;;6.00;3.30;;;16.10;71.60;;;;;;5037912;28;20387;-74
2023/05/04 03:21:52;;;;;;;3.70;3.17;;;16.10;71.60;;;;;;5071902;28;20433;-74
2023/05/04 03:24:18;;;;;;;8.63;3.60;;;16.10;71.60;;;;;;5074545;28;20438;-74
2023/05/04 03:26:45;;;;;;;9.00;3.90;;;16.00;71.50;;;;;;5057744;28;20393;-74
2023/05/04 03:29:12;;;;;;;3.73;3.43;;;16.00;71.60;;;;;;5057850;28;20412;-74
2023/05/04 03:31:39;;;;;;;6.50;3.47;;;16.00;71.60;;;;;;5057936;28;20413;-74
2023/05/04 03:34:11;;;;;;;7.00;3.47;;;16.00;71.70;;;;;;5058496;28;20419;-76
2023/05/04 03:36:40;;;;;;;5.70;3.70;;;16.00;71.70;;;;;;5040191;28;20823;-74
2023/05/04 03:39:07;;;;;;;3.77;3.07;;;15.90;71.70;;;;;;5034528;28;20447;-74
2023/05/04 03:41:33;;;;;;;5.03;3.73;;;15.90;71.70;;;;;;5052201;28;20404;-74
2023/05/04 03:44:04;;;;;;;6.87;3.70;;;15.90;71.70;;;;;;5037414;28;20405;-72
2023/05/04 03:46:30;;;;;;;3.53;3.23;;;15.90;71.70;;;;;;5038349;28;20498;-75
2023/05/04 03:49:01;;;;;;;5.57;2.97;;;15.90;71.70;;;;;;5059491;28;20492;-74
2023/05/04 03:51:30;;;;;;;6.50;3.43;;;15.90;71.80;;;;;;5054985;28;20478;-74
2023/05/04 03:53:58;;;;;;;8.67;3.97;;;15.90;71.80;;;;;;5044846;28;20423;-74
2023/05/04 03:56:27;;;;;;;5.20;3.93;;;15.90;71.80;;;;;;5077636;28;20522;-74
2023/05/04 03:58:53;;;;;;;4.80;3.83;;;15.80;71.70;;;;;;5056586;28;20522;-74
2023/05/04 04:01:25;;;;;;;4.20;3.37;;;15.80;71.80;;;;;;5068960;23;20593;-71
2023/05/04 04:03:53;;;;;;;3.50;2.83;;;15.80;71.90;;;;;;5042094;28;20581;-71
2023/05/04 04:06:24;;;;;;;4.40;3.30;;;15.80;71.80;;;;;;5020581;28;20431;-71
2023/05/04 04:08:53;;;;;;;4.87;3.27;;;15.80;71.90;;;;;;5036940;28;20430;-71
2023/05/04 04:11:19;;;;;;;4.20;3.33;;;15.70;71.80;;;;;;5036752;28;20903;-71
2023/05/04 04:13:48;;;;;;;5.30;3.60;;;15.70;71.80;;;;;;5045997;28;20780;-71
2023/05/04 04:16:18;;;;;;;4.60;3.53;;;15.70;71.90;;;;;;5040097;28;20457;-72
2023/05/04 04:18:49;;;;;;;7.70;3.80;;;15.70;71.90;;;;;;5074405;28;20406;-72
2023/05/04 04:21:15;;;;;;;7.37;3.60;;;15.70;72.80;;;;;;5056541;28;20425;-72
2023/05/04 04:23:41;;;;;;;5.50;4.03;;;15.70;72.10;;;;;;5074193;28;20955;-72
2023/05/04 04:26:07;;;;;;;5.50;3.70;;;15.60;72.10;;;;;;5056374;28;20398;-72
2023/05/04 04:28:33;;;;;;;4.07;3.67;;;15.70;72.20;;;;;;5022256;28;20475;-72
2023/05/04 04:30:59;;;;;;;4.33;3.70;;;15.60;72.20;;;;;;5072801;28;20458;-72
2023/05/04 04:33:25;;;;;;;7.10;4.17;;;15.60;72.30;;;;;;5055882;28;20433;-72
2023/05/04 04:35:52;;;;;;;5.60;4.67;;;15.60;72.30;;;;;;5039429;28;20663;-72
2023/05/04 04:38:20;;;;;;;5.10;3.80;;;15.60;72.30;;;;;;5074508;28;20455;-72
2023/05/04 04:40:48;;;;;;;4.30;3.87;;;15.60;72.40;;;;;;5074207;28;20444;-72
2023/05/04 04:43:22;;;;;;;5.80;3.93;;;15.50;72.30;;;;;;5074181;28;20447;-72
2023/05/04 04:45:53;;;;;;;3.73;3.43;;;15.50;72.40;;;;;;5056055;28;20462;-72
2023/05/04 04:48:20;;;;;;;5.00;4.23;;;15.50;72.40;;;;;;5073744;28;20413;-72
2023/05/04 04:50:51;;;;;;;4.40;3.43;;;15.50;72.50;;;;;;5055774;28;20410;-72
2023/05/04 04:53:22;;;;;;;4.43;3.40;;;15.50;72.50;;;;;;5055201;28;20433;-72
2023/05/04 04:55:51;;;;;;;5.50;3.80;;;15.50;72.60;;;;;;5039416;28;20511;-72
2023/05/04 04:58:19;;;;;;;3.87;3.37;;;15.50;72.60;;;;;;5056099;28;20429;-72
2023/05/04 05:00:46;;;;;;;4.13;3.37;;;15.40;72.60;;;;;;5039169;28;20434;-72
2023/05/04 05:03:17;;;;;;;4.63;4.13;;;15.40;72.70;;;;;;5055874;28;20454;-72
2023/05/04 05:05:45;;;;;;;4.70;3.80;;;15.40;72.80;;;;;;5055805;28;20943;-72
2023/05/04 05:08:15;;;;;;;6.20;3.80;;;15.40;72.90;;;;;;5073947;28;20406;-72
2023/05/04 05:10:42;;;;;;;5.97;4.07;;;15.40;73.00;;;;;;5039343;28;20828;-72
2023/05/04 05:13:10;;;;;;;4.17;3.60;;;15.40;73.00;;;;;;5055195;28;20431;-72
2023/05/04 05:15:38;;;;;;;3.90;3.60;;;15.40;73.10;;;;;;5073368;28;20472;-72
2023/05/04 05:18:05;;;;;;;8.20;4.17;;;15.30;73.10;;;;;;5055794;28;20431;-72
2023/05/04 05:20:38;;;;;;;4.37;3.97;;;15.30;73.20;;;;;;5055875;28;20385;-72
2023/05/04 05:23:04;;;;;;;4.43;3.70;;;15.40;73.40;;;;;;5073090;28;20448;-72
2023/05/04 05:25:32;;;;;;;4.77;4.27;;;15.30;73.40;;;;;;5055654;28;20798;-72
2023/05/04 05:27:58;;;;;;;4.50;3.80;;;15.30;73.50;;;;;;5073123;28;20443;-72
2023/05/04 05:30:27;;;;;;;4.60;4.03;;;15.30;73.60;;;;;;5038604;28;20433;-72
2023/05/04 05:32:53;;;;;;;5.13;3.83;;;15.30;73.70;;;;;;5072991;28;20451;-72
2023/05/04 05:35:21;;;;;;;4.33;3.70;;;15.30;73.80;;;;;;5055484;28;20453;-72
2023/05/04 05:37:48;;;;;;;5.10;3.40;;;15.30;74.00;;;;;;5055161;28;20402;-72
2023/05/04 05:40:14;;;;;;;3.93;3.53;;;15.20;73.90;;;;;;5022171;28;20444;-72
2023/05/04 05:42:41;;;;;;;5.40;3.93;;;15.20;73.90;;;;;;5054395;28;20440;-72
2023/05/04 05:45:10;;;;;;;4.63;4.07;;;15.20;74.10;;;;;;5072185;28;20541;-72
2023/05/04 05:47:36;;;;;;;7.93;4.40;;;15.20;74.20;;;;;;5055079;28;20398;-72
2023/05/04 05:50:06;;;;;;;4.40;3.93;;;15.20;74.20;;;;;;5038013;28;20827;-72
2023/05/04 05:52:34;;;;;;;4.73;3.57;;;15.20;74.40;;;;;;5054019;28;20449;-72
2023/05/04 05:55:00;;;;;;;5.10;4.23;;;15.20;74.40;;;;;;5071914;28;20440;-72
2023/05/04 05:57:29;;;;;;;4.07;3.37;;;15.20;74.50;;;;;;5052062;28;20436;-72
2023/05/04 05:59:57;;;;;;;13.53;4.43;;;15.20;74.60;;;;;;5017753;28;20536;-72
2023/05/04 06:02:26;;;;;;;4.03;3.63;;;15.20;74.60;;;;;;5002400;28;20476;-72
2023/05/04 06:04:54;;;;;;;5.07;4.00;;;15.20;74.80;;;;;;5017356;28;20458;-72
2023/05/04 06:07:20;;;;;;;4.30;3.90;;;15.20;74.90;;;;;;5018171;28;20454;-72
2023/05/04 06:09:46;;;;;;;8.27;4.60;;;15.20;75.00;;;;;;5002081;28;20789;-72
2023/05/04 06:12:16;;;;;;;5.60;3.47;;;15.20;75.20;;;;;;5001635;28;20443;-72
2023/05/04 06:14:42;;;;;;;4.53;3.90;;;15.20;75.30;;;;;;5034672;28;20432;-72
2023/05/04 06:17:08;;;;;;;6.57;4.00;;;15.20;75.40;;;;;;5052293;28;20452;-72
2023/05/04 06:19:40;;;;;;;5.13;4.60;;;15.20;75.40;;;;;;5052011;28;20410;-72
2023/05/04 06:22:06;;;;;;;5.20;4.10;;;15.20;75.50;;;;;;5056651;28;20961;-72
2023/05/04 06:24:32;;;;;;;4.40;4.00;;;15.20;75.50;;;;;;5072188;28;20696;-72
2023/05/04 06:26:58;;;;;;;4.80;3.73;;;15.20;75.60;;;;;;5045865;28;20457;-72
2023/05/04 06:29:29;;;;;;;4.57;4.07;;;15.20;75.80;;;;;;5074879;28;20425;-72
2023/05/04 06:32:01;;;;;;;4.00;3.60;;;15.20;75.80;;;;;;5092167;28;20433;-72
2023/05/04 06:34:29;;;;;;;6.23;4.03;;;15.20;75.90;;;;;;5040945;28;20513;-72
2023/05/04 06:36:55;;;;;;;4.43;3.07;;;15.20;75.90;;;;;;5077283;28;20502;-72
2023/05/04 06:39:21;;;;;;;6.17;4.80;;;15.20;76.10;;;;;;5054194;28;20435;-72
2023/05/04 06:41:53;;;;;;;4.73;3.40;;;15.20;76.90;;;;;;5070713;28;20418;-72
2023/05/04 06:44:21;;;;;;;3.90;3.13;;;15.20;76.20;;;;;;5054206;28;20428;-72
2023/05/04 06:46:47;;;;;;;4.23;3.27;;;15.20;76.50;;;;;;5070646;28;20480;-72
2023/05/04 06:49:16;;;;;;;5.80;3.47;;;15.20;76.60;;;;;;5072089;28;20815;-72
2023/05/04 06:51:44;;;;;;;5.20;3.63;;;15.20;76.70;;;;;;5071733;28;20410;-72
2023/05/04 06:54:14;;;;;;;5.40;4.10;;;15.20;76.80;;;;;;5020041;28;20466;-72
2023/05/04 06:56:45;;;;;;;6.17;3.83;;;15.20;76.90;;;;;;5086669;28;20541;-72
2023/05/04 06:59:13;;;;;;;4.33;3.77;;;15.20;76.90;;;;;;5038181;28;20828;-72
2023/05/04 07:01:41;;;;;;;7.07;3.80;;;15.20;76.90;;;;;;5071381;28;20585;-72
2023/05/04 07:04:07;;;;;;;4.20;3.20;;;15.20;77.00;;;;;;5059118;28;21101;-72
2023/05/04 07:06:38;;;;;;;4.87;3.97;;;15.20;77.00;;;;;;5080939;28;20418;-73
2023/05/04 07:09:04;;;;;;;6.90;3.53;;;15.20;77.10;;;;;;5071305;28;20726;-72
2023/05/04 07:11:37;;;;;;;3.77;3.33;;;15.30;77.30;;;;;;5036479;28;20432;-72
2023/05/04 07:14:05;;;;;;;4.00;3.60;;;15.30;77.20;;;;;;5045805;28;20479;-72
2023/05/04 07:16:31;;;;;;;3.87;3.47;;;15.30;77.00;;;;;;5081245;28;20457;-72
2023/05/04 07:19:00;;;;;;;7.33;3.50;;;15.30;76.90;;;;;;5058052;28;20433;-72
2023/05/04 07:21:28;;;;;;;4.33;3.40;;;15.30;76.80;;;;;;5075431;28;20763;-72
2023/05/04 07:23:59;;;;;;;5.50;3.50;;;15.30;76.70;;;;;;5057515;28;20406;-73
2023/05/04 07:26:28;;;;;;;3.40;3.10;;;15.30;76.70;;;;;;5024560;28;20427;-72
2023/05/04 07:28:54;;;;;;;3.20;2.90;;;15.40;76.90;;;;;;5057206;28;20417;-73
2023/05/04 07:31:22;;;;;;;6.07;3.20;;;15.40;76.80;;;;;;5057215;28;20415;-72
2023/05/04 07:33:53;;;;;;;3.63;3.33;;;15.40;76.70;;;;;;5057841;28;20449;-72
2023/05/04 07:36:26;;;;;;;3.43;3.10;;;15.40;76.60;;;;;;5074768;28;20459;-72
2023/05/04 07:38:53;;;;;;;5.10;3.40;;;15.40;76.60;;;;;;5040792;28;20449;-73
2023/05/04 07:41:19;;;;;;;6.23;3.90;;;15.40;76.80;;;;;;5057126;28;20922;-72
2023/05/04 07:43:45;;;;;;;5.70;3.47;;;15.50;76.90;;;;;;5024304;28;20442;-73
2023/05/04 07:46:12;;;;;;;3.27;2.97;;;15.50;77.00;;;;;;5057281;28;20528;-73
2023/05/04 07:48:38;;;;;;;3.57;2.80;;;15.50;77.00;;;;;;5057272;28;20894;-72
2023/05/04 07:51:13;;;;;;;4.63;3.10;;;15.50;77.00;;;;;;5056957;28;20434;-72
2023/05/04 07:53:41;;;;;;;3.30;2.87;;;15.50;77.00;;;;;;5056846;28;20516;-72
2023/05/04 07:56:10;;;;;;;4.50;3.30;;;15.50;77.00;;;;;;5056859;28;20841;-72
2023/05/04 07:58:38;;;;;;;3.87;3.33;;;15.60;77.10;;;;;;5040905;28;20398;-72
2023/05/04 08:01:04;;;;;;;5.13;3.40;;;15.60;77.20;;;;;;5040231;28;20448;-72
2023/05/04 08:03:35;;;;;;;3.50;3.20;;;15.60;77.40;;;;;;5075079;28;20440;-72
2023/05/04 08:06:01;;;;;;;4.17;2.80;;;15.70;77.50;;;;;;5088443;28;20450;-72
2023/05/04 08:08:27;;;;;;;3.50;3.20;;;15.70;77.50;;;;;;5056905;28;20415;-72
2023/05/04 08:10:55;;;;;;;4.03;3.30;;;15.70;77.30;;;;;;5057009;28;20435;-72
2023/05/04 08:13:21;;;;;;;5.30;3.40;;;15.70;77.30;;;;;;5056751;28;20508;-72
2023/05/04 08:15:50;;;;;;;4.43;3.50;;;15.70;77.30;;;;;;5056653;28;20462;-70
2023/05/04 08:18:16;;;;;;;6.87;3.17;;;15.70;77.30;;;;;;5056749;28;20399;-72
2023/05/04 08:20:42;;;;;;;3.33;2.60;;;15.80;77.40;;;;;;5074315;28;20421;-71
2023/05/04 08:23:11;;;;;;;4.13;2.90;;;15.80;77.50;;;;;;5056609;28;20477;-71
2023/05/04 08:25:37;;;;;;;4.03;3.30;;;15.80;77.50;;;;;;5074660;28;20796;-71
2023/05/04 08:28:05;;;;;;;3.13;2.80;;;15.80;77.50;;;;;;5055307;28;20174;-71
2023/05/04 08:30:37;;;;;;;3.70;3.10;;;15.90;77.60;;;;;;5040430;28;20533;-71
2023/05/04 08:33:07;;;;;;;6.60;3.40;;;15.90;77.70;;;;;;5072833;28;20441;-71
2023/05/04 08:35:36;;;;;;;4.40;3.20;;;15.90;77.70;;;;;;5056501;28;20462;-71
2023/05/04 08:38:06;;;;;;;3.80;3.30;;;15.90;77.60;;;;;;5023873;28;20418;-71
2023/05/04 08:40:32;;;;;;;3.83;3.40;;;16.00;77.70;;;;;;5039895;28;20399;-71
2023/05/04 08:43:02;;;;;;;3.30;3.00;;;16.00;77.70;;;;;;5073985;28;20852;-71
2023/05/04 08:45:28;;;;;;;3.43;3.00;;;16.00;77.70;;;;;;5056415;28;20769;-71
2023/05/04 08:47:59;;;;;;;6.23;3.00;;;16.10;77.80;;;;;;5056048;28;20454;-72
2023/05/04 08:50:25;;;;;;;3.90;3.10;;;16.10;77.70;;;;;;5056298;28;20426;-71
2023/05/04 08:52:52;;;;;;;4.37;3.70;;;16.10;77.70;;;;;;5073864;28;20433;-71
2023/05/04 08:55:21;;;;;;;4.53;3.70;;;16.20;77.80;;;;;;5056127;28;20422;-71
2023/05/04 08:57:50;;;;;;;3.57;3.27;;;16.20;77.80;;;;;;5056092;28;20419;-71
2023/05/04 09:00:17;;;;;;;3.90;3.47;;;16.20;77.90;;;;;;5073598;28;20426;-72
2023/05/04 09:02:47;;;;;;;4.30;3.73;;;16.30;78.10;;;;;;5040079;28;20438;-71
2023/05/04 09:05:15;;;;;;;3.50;3.20;;;16.30;78.20;;;;;;5023226;28;20471;-71
2023/05/04 09:07:41;;;;;;;3.60;3.03;;;16.30;78.20;;;;;;5053118;28;20446;-71
2023/05/04 09:10:10;;;;;;;6.27;4.13;;;16.40;78.40;;;;;;5053572;28;20443;-71
2023/05/04 09:12:41;;;;;;;3.77;3.47;;;16.40;78.30;;;;;;5053539;28;20450;-71
2023/05/04 09:15:17;;;;;;;3.90;3.50;;;16.50;78.50;;;;;;5053435;28;20439;-71
2023/05/04 09:18:04;;;;;;;5.17;3.57;;;16.50;78.50;;;;;;5052296;28;20458;-71
2023/05/04 09:20:41;;;;;;;5.07;3.43;;;16.60;78.60;;;;;;5035769;28;20434;-71
2023/05/04 09:23:08;;;;;;;5.07;3.47;;;16.60;78.60;;;;;;5035374;28;20455;-71
2023/05/04 09:26:03;;;;;;;3.90;3.47;;;16.60;78.50;;;;;;5053115;28;20836;-71
2023/05/04 09:28:39;;;;;;;3.90;3.60;;;16.70;78.70;;;;;;5035714;28;20428;-71
2023/05/04 09:31:06;;;;;;;4.00;3.70;;;16.70;78.70;;;;;;5018979;28;20432;-71
2023/05/04 09:33:32;;;;;;;4.40;3.60;;;16.80;78.80;;;;;;5035193;28;20457;-71
2023/05/04 09:36:11;;;;;;;6.00;3.57;;;16.80;78.80;;;;;;5044230;28;20829;-71
2023/05/04 09:38:37;;;;;;;5.10;4.40;;;16.80;78.70;;;;;;5075072;28;20449;-71
2023/05/04 09:41:07;;;;;;;3.90;3.50;;;16.90;78.70;;;;;;5093129;28;20392;-71
2023/05/04 09:43:40;;;;;;;3.83;3.50;;;16.90;78.80;;;;;;5058690;28;20436;-71
2023/05/04 09:46:15;;;;;;;3.87;3.57;;;17.00;78.90;;;;;;5074774;28;20403;-72
2023/05/04 09:48:52;;;;;;;3.97;3.67;;;17.00;78.90;;;;;;5055953;28;20517;-71
2023/05/04 09:51:21;;;;;;;4.80;4.03;;;17.10;79.00;;;;;;5038468;28;20433;-71
2023/05/04 09:53:50;;;;;;;4.37;3.20;;;17.10;79.00;;;;;;5072662;28;20465;-71
2023/05/04 09:56:31;;;;;;;3.70;3.40;;;17.20;78.90;;;;;;5072950;28;20565;-72
2023/05/04 09:58:58;;;;;;;3.80;3.50;;;17.20;78.80;;;;;;5072770;28;20411;-71
2023/05/04 10:01:30;;;;;;;6.00;3.77;;;17.20;78.70;;;;;;5054139;28;20456;-70
2023/05/04 10:04:01;;;;;;;6.43;3.07;;;17.30;78.50;;;;;;5021805;28;20972;-72
2023/05/04 10:06:31;;;;;;;4.10;3.67;;;17.30;78.50;;;;;;5054203;28;20457;-71
2023/05/04 10:09:01;;;;;;;6.87;3.80;;;17.40;78.50;;;;;;5037299;28;20461;-71
2023/05/04 10:11:29;;;;;;;4.93;4.43;;;17.40;78.50;;;;;;5054267;28;20406;-71
2023/05/04 10:13:59;;;;;;;4.03;3.73;;;17.50;78.80;;;;;;5070940;28;20487;-71
2023/05/04 10:16:51;;;;;;;4.20;3.80;;;17.50;78.80;;;;;;5070982;28;20497;-71
2023/05/04 10:19:43;;;;;;;4.30;3.90;;;17.60;78.80;;;;;;5072426;28;20401;-71
2023/05/04 10:22:37;;;;;;;6.23;4.20;;;17.60;78.80;;;;;;5054318;28;20443;-71
2023/05/04 10:25:44;;;;;;;4.07;3.67;;;17.70;79.00;;;;;;5037775;28;20450;-71
2023/05/04 10:28:20;;;;;;;4.10;3.80;;;17.70;78.90;;;;;;5044310;28;20443;-72
2023/05/04 10:30:46;;;;;;;4.93;4.43;;;17.80;79.10;;;;;;5070824;28;20481;-72
2023/05/04 10:33:15;;;;;;;4.60;4.20;;;17.80;79.00;;;;;;5054159;28;20505;-71
2023/05/04 10:35:51;;;;;;;3.90;3.60;;;17.90;79.00;;;;;;5037821;28;20938;-72
2023/05/04 10:38:30;;;;;;;3.90;3.60;;;18.00;79.00;;;;;;5053975;28;20408;-72
2023/05/04 10:40:57;;;;;;;5.30;3.77;;;18.00;79.00;;;;;;5054274;28;20456;-71
2023/05/04 10:43:23;;;;;;;3.60;3.33;;;18.00;78.80;;;;;;5054149;28;20912;-71
2023/05/04 10:45:51;;;;;;;6.23;3.87;;;18.10;78.80;;;;;;5071992;28;20480;-71
2023/05/04 10:48:17;;;;;;;4.67;4.27;;;18.10;78.80;;;;;;5053863;28;20440;-72
2023/05/04 10:50:52;;;;;;;3.70;3.33;;;18.20;79.00;;;;;;5036887;28;20471;-71
2023/05/04 10:53:30;;;;;;;4.00;3.70;;;18.20;78.90;;;;;;5070464;28;20453;-72
2023/05/04 10:56:00;;;;;;;4.20;3.90;;;18.20;78.80;;;;;;5054237;28;20822;-72
2023/05/04 10:58:31;;;;;;;4.30;3.90;;;18.30;78.80;;;;;;5070697;28;20750;-72
2023/05/04 11:00:57;;;;;;;5.50;3.70;;;18.30;78.60;;;;;;5037161;28;20456;-72
2023/05/04 11:03:24;;;;;;;4.17;3.67;;;18.40;79.40;;;;;;5053696;28;20448;-72
2023/05/04 11:05:53;;;;;;;4.43;4.03;;;18.40;78.50;;;;;;5071745;28;20880;-72
2023/05/04 11:08:28;;;;;;;4.53;3.57;;;18.50;78.50;;;;;;5054200;28;20401;-72
2023/05/04 11:11:05;;;;;;;4.40;4.00;;;18.50;78.40;;;;;;5054044;28;20827;-72
2023/05/04 11:13:39;;;;;;;4.30;3.90;;;18.60;78.40;;;;;;5071016;28;20447;-72
2023/05/04 11:16:11;;;;;;;4.20;3.90;;;18.60;78.20;;;;;;5053581;28;20452;-72
2023/05/04 11:18:40;;;;;;;7.03;3.57;;;18.70;78.10;;;;;;5037371;28;20424;-72
2023/05/04 11:21:07;;;;;;;3.70;3.40;;;18.70;78.00;;;;;;5037219;28;20424;-72
2023/05/04 11:23:33;;;;;;;4.30;4.00;;;18.70;77.80;;;;;;5053777;28;20452;-73
2023/05/04 11:26:11;;;;;;;3.90;3.47;;;18.80;77.80;;;;;;5036962;28;20425;-72
2023/05/04 11:28:37;;;;;;;5.20;4.40;;;18.80;77.70;;;;;;5053773;28;20426;-72
2023/05/04 11:31:17;;;;;;;5.00;3.87;;;18.90;77.50;;;;;;5037050;28;20421;-73
2023/05/04 11:33:45;;;;;;;3.93;3.63;;;18.90;77.50;;;;;;5036790;28;20971;-72
2023/05/04 11:36:12;;;;;;;5.27;4.20;;;18.90;77.50;;;;;;5053502;28;20561;-72
2023/05/04 11:38:42;;;;;;;4.40;3.93;;;19.00;77.50;;;;;;5053543;28;20460;-73
2023/05/04 11:41:09;;;;;;;5.40;3.93;;;19.00;78.00;;;;;;5071273;28;20432;-72
2023/05/04 11:43:39;;;;;;;5.10;3.67;;;19.10;77.00;;;;;;5070131;28;20796;-73
2023/05/04 11:46:11;;;;;;;4.10;3.80;;;19.10;76.80;;;;;;5037212;28;20405;-72
2023/05/04 11:48:41;;;;;;;6.00;4.30;;;19.10;76.60;;;;;;5053517;28;20421;-73
2023/05/04 11:51:07;;;;;;;4.10;3.80;;;19.20;76.60;;;;;;5071306;28;20404;-73
2023/05/04 11:53:37;;;;;;;4.50;3.70;;;19.20;76.30;;;;;;5053236;28;20449;-72
2023/05/04 11:56:04;;;;;;;4.37;3.67;;;19.20;76.10;;;;;;5053502;28;20725;-72
2023/05/04 11:58:35;;;;;;;3.90;3.60;;;19.30;75.90;;;;;;5053319;28;20437;-72
2023/05/04 12:01:02;;;;;;;4.43;4.10;;;19.30;75.70;;;;;;5036697;28;20436;-72
2023/05/04 12:03:33;;;;;;;4.30;3.83;;;19.30;75.50;;;;;;5056054;28;20514;-72
2023/05/04 12:06:03;;;;;;;3.80;3.50;;;19.30;75.20;;;;;;5040474;28;21074;-72
2023/05/04 12:08:40;;;;;;;4.60;3.77;;;19.40;75.10;;;;;;5057034;28;20399;-72
2023/05/04 12:11:20;;;;;;;3.47;3.00;;;19.40;75.00;;;;;;5073381;28;20438;-72
2023/05/04 12:14:08;;;;;;;4.03;3.70;;;19.50;75.10;;;;;;5073223;28;20437;-72
2023/05/04 12:16:37;;;;;;;3.47;3.17;;;19.50;75.00;;;;;;5040149;28;20466;-72
2023/05/04 12:19:05;;;;;;;4.23;3.83;;;19.50;74.80;;;;;;5056967;28;20416;-72
2023/05/04 12:21:34;;;;;;;3.67;3.37;;;19.60;74.60;;;;;;5040280;28;20409;-72
2023/05/04 12:24:04;;;;;;;3.63;3.40;;;19.60;74.50;;;;;;5073355;28;20391;-72
2023/05/04 12:26:34;;;;;;;3.70;3.40;;;19.60;74.40;;;;;;5040259;28;20441;-73
2023/05/04 12:29:00;;;;;;;4.33;3.97;;;19.70;74.40;;;;;;5074355;28;20895;-72
2023/05/04 12:31:29;;;;;;;4.07;3.17;;;19.70;74.20;;;;;;5039928;28;20453;-72
2023/05/04 12:33:55;;;;;;;4.07;3.67;;;19.80;74.20;;;;;;5039722;28;20440;-72
2023/05/04 12:36:21;;;;;;;3.93;3.40;;;19.80;74.20;;;;;;5055935;28;20834;-72
2023/05/04 12:38:47;;;;;;;3.50;3.20;;;19.80;74.10;;;;;;5074234;28;20485;-72
2023/05/04 12:41:13;;;;;;;5.43;3.77;;;19.90;74.00;;;;;;5022875;28;20843;-72
2023/05/04 12:43:42;;;;;;;4.77;4.13;;;19.90;73.90;;;;;;5039716;28;20442;-72
2023/05/04 12:46:08;;;;;;;3.83;3.10;;;19.90;73.80;;;;;;5056405;28;20407;-72
2023/05/04 12:48:38;;;;;;;3.30;3.00;;;20.00;73.80;;;;;;5056620;28;20401;-72
2023/05/04 12:51:07;;;;;;;4.10;3.70;;;20.00;73.60;;;;;;5073884;28;20419;-73
2023/05/04 12:53:35;;;;;;;3.77;3.47;;;20.00;73.30;;;;;;5039387;28;20432;-72
2023/05/04 12:56:03;;;;;;;3.37;3.17;;;20.10;73.30;;;;;;5055975;28;20986;-72
2023/05/04 12:58:32;;;;;;;3.73;3.40;;;20.10;73.10;;;;;;5073717;28;20400;-72